Time;durP1;ratioP1;P1;durP2;ratioP2;P2;SDS_P1;SDS_P2;PMS_P1;PMS_P2;Temp;Humidity;BMP_temperature;BMP_pressure;BME280_temperature;BME280_humidity;BME280_pressure;Samples;Min_cycle;Max_cycle;Signal;HPM_P1;HPM_P2
2022/08/31 00:04:44;;;;;;;8.27;7.43;;;;;;;17.98;100.00;96360.97;5048118;27;105646;-63
2022/08/31 00:07:11;;;;;;;8.77;7.63;;;;;;;17.87;100.00;96362.25;5048664;27;102001;-63
2022/08/31 00:09:38;;;;;;;8.13;7.43;;;;;;;17.64;100.00;96359.69;5048743;27;105585;-63
2022/08/31 00:12:05;;;;;;;8.57;7.83;;;;;;;17.46;100.00;96355.97;5051696;27;105847;-63
2022/08/31 00:14:34;;;;;;;9.33;7.90;;;;;;;17.64;100.00;96357.00;5048648;27;105504;-63
2022/08/31 00:17:01;;;;;;;9.23;8.43;;;;;;;17.72;100.00;96361.72;5048216;27;105300;-63
2022/08/31 00:19:28;;;;;;;8.97;8.07;;;;;;;17.83;100.00;96355.84;5048474;27;102009;-63
2022/08/31 00:21:56;;;;;;;8.87;8.07;;;;;;;17.51;100.00;96360.47;5049866;27;102369;-63
2022/08/31 00:24:22;;;;;;;8.37;7.57;;;;;;;17.62;100.00;96361.91;5049246;27;102746;-63
2022/08/31 00:26:49;;;;;;;8.73;7.93;;;;;;;17.50;100.00;96361.56;5049523;27;101868;-63
2022/08/31 00:29:16;;;;;;;7.83;7.03;;;;;;;17.58;100.00;96361.69;5048438;27;104219;-63
2022/08/31 00:31:45;;;;;;;8.30;7.50;;;;;;;17.42;100.00;96356.84;5047937;27;105409;-63
2022/08/31 00:34:14;;;;;;;8.67;6.53;;;;;;;17.76;100.00;96357.34;5051685;27;101857;-63
2022/08/31 00:36:41;;;;;;;7.30;6.60;;;;;;;17.80;100.00;96356.47;5049087;27;105756;-63
2022/08/31 00:39:08;;;;;;;7.40;6.73;;;;;;;17.81;100.00;96347.28;5051713;27;101924;-63
2022/08/31 00:41:37;;;;;;;8.10;7.33;;;;;;;17.66;100.00;96341.41;5051782;27;105281;-63
2022/08/31 00:44:06;;;;;;;9.17;7.83;;;;;;;17.48;100.00;96347.59;5051328;27;105322;-63
2022/08/31 00:46:36;;;;;;;7.00;6.43;;;;;;;17.47;100.00;96348.69;5051491;27;101908;-64
2022/08/31 00:49:08;;;;;;;8.50;7.30;;;;;;;17.42;100.00;96352.28;5051647;27;104035;-64
2022/08/31 00:51:39;;;;;;;8.17;7.40;;;;;;;17.33;100.00;96347.84;5052545;27;102594;-63
2022/08/31 00:54:08;;;;;;;8.00;7.20;;;;;;;17.16;100.00;96347.59;5055316;27;102039;-64
2022/08/31 00:56:37;;;;;;;7.60;7.00;;;;;;;17.29;100.00;96354.88;5050996;27;105407;-64
2022/08/31 00:59:04;;;;;;;10.23;7.93;;;;;;;17.33;100.00;96347.84;5052671;27;101988;-63
2022/08/31 01:01:31;;;;;;;8.97;8.17;;;;;;;17.06;100.00;96356.56;5050830;27;105428;-63
2022/08/31 01:03:59;;;;;;;9.43;8.63;;;;;;;16.96;100.00;96358.63;5050903;27;105875;-63
2022/08/31 01:06:44;;;;;;;9.83;8.83;;;;;;;16.89;100.00;96353.59;5050529;27;101549;-63
2022/08/31 01:09:13;;;;;;;8.90;8.00;;;;;;;17.23;100.00;96358.75;5045210;27;106017;-63
2022/08/31 01:11:42;;;;;;;9.47;8.40;;;;;;;17.32;100.00;96362.34;5045923;27;101897;-63
2022/08/31 01:14:10;;;;;;;8.37;7.57;;;;;;;17.51;100.00;96357.78;5045630;27;105835;-63
2022/08/31 01:16:41;;;;;;;8.10;7.40;;;;;;;17.70;100.00;96353.13;5046578;27;102791;-63
2022/08/31 01:19:17;;;;;;;8.90;7.63;;;;;;;17.77;100.00;96351.66;5045761;27;102071;-63
2022/08/31 01:21:55;;;;;;;7.97;7.30;;;;;;;17.72;100.00;96348.28;5045292;27;105198;-63
2022/08/31 01:24:26;;;;;;;8.53;7.73;;;;;;;17.60;100.00;96347.97;5046695;27;102645;-63
2022/08/31 01:26:56;;;;;;;8.30;7.60;;;;;;;17.63;100.00;96339.28;5048989;27;102291;-63
2022/08/31 01:29:23;;;;;;;8.17;7.47;;;;;;;17.74;100.00;96354.16;5046341;27;102701;-63
2022/08/31 01:31:50;;;;;;;11.70;8.63;;;;;;;17.65;100.00;96348.66;5045486;27;102454;-63
2022/08/31 01:34:17;;;;;;;7.77;6.90;;;;;;;17.73;100.00;96352.56;5047015;27;102327;-63
2022/08/31 01:36:46;;;;;;;8.63;7.83;;;;;;;17.67;100.00;96348.38;5044535;27;105854;-63
2022/08/31 01:39:14;;;;;;;8.93;8.23;;;;;;;17.46;100.00;96357.88;5045366;27;102193;-63
2022/08/31 01:41:42;;;;;;;8.97;8.17;;;;;;;17.50;100.00;96358.88;5045423;27;105005;-63
2022/08/31 01:44:10;;;;;;;9.47;8.57;;;;;;;17.51;100.00;96355.09;5044887;27;105416;-63
2022/08/31 01:46:37;;;;;;;7.93;7.20;;;;;;;17.73;100.00;96353.38;5044783;27;102032;-63
2022/08/31 01:49:05;;;;;;;8.90;8.10;;;;;;;17.67;100.00;96359.13;5048260;27;105201;-63
2022/08/31 01:51:33;;;;;;;9.30;8.50;;;;;;;17.67;100.00;96353.75;5045141;27;101935;-63
2022/08/31 01:54:02;;;;;;;8.83;8.03;;;;;;;17.63;100.00;96360.78;5045153;27;105279;-63
2022/08/31 01:56:32;;;;;;;8.57;7.87;;;;;;;17.65;100.00;96354.03;5044116;27;105284;-63
2022/08/31 01:59:05;;;;;;;9.40;8.50;;;;;;;17.67;100.00;96354.56;5045450;27;102184;-63
2022/08/31 02:01:56;;;;;;;9.13;8.23;;;;;;;17.63;100.00;96350.84;5044935;27;105701;-63
2022/08/31 02:04:27;;;;;;;9.70;8.87;;;;;;;17.44;100.00;96349.31;5044017;27;105112;-63
2022/08/31 02:06:59;;;;;;;8.93;8.03;;;;;;;17.34;100.00;96350.22;5044870;27;101913;-63
2022/08/31 02:09:26;;;;;;;8.60;7.90;;;;;;;17.44;100.00;96360.06;5045013;27;105176;-63
2022/08/31 02:11:53;;;;;;;7.70;7.00;;;;;;;17.60;100.00;96356.81;5047593;27;105605;-63
2022/08/31 02:14:22;;;;;;;7.57;6.90;;;;;;;17.86;100.00;96357.16;5044797;27;105053;-63
2022/08/31 02:16:50;;;;;;;8.03;7.27;;;;;;;17.89;100.00;96351.19;5037336;27;105534;-63
2022/08/31 02:19:17;;;;;;;8.00;7.20;;;;;;;17.95;100.00;96350.81;5031446;28;102110;-63
2022/08/31 02:21:44;;;;;;;7.93;7.13;;;;;;;17.91;100.00;96340.91;5031013;28;105065;-63
2022/08/31 02:24:11;;;;;;;8.27;7.57;;;;;;;17.87;100.00;96337.25;5030779;28;105313;-63
2022/08/31 02:26:39;;;;;;;9.30;8.50;;;;;;;17.81;100.00;96343.78;5030918;28;102174;-63
2022/08/31 02:29:07;;;;;;;7.63;7.03;;;;;;;17.80;100.00;96352.97;5031178;28;104778;-63
2022/08/31 02:31:36;;;;;;;7.53;6.93;;;;;;;17.90;100.00;96347.41;5031868;28;102620;-63
2022/08/31 02:34:03;;;;;;;8.17;7.37;;;;;;;17.90;100.00;96352.78;5034263;28;101939;-63
2022/08/31 02:36:32;;;;;;;8.57;7.80;;;;;;;17.81;100.00;96343.78;5030633;28;105109;-63
2022/08/31 02:39:00;;;;;;;10.80;9.80;;;;;;;17.75;100.00;96344.97;5030941;28;102098;-63
2022/08/31 02:41:27;;;;;;;10.47;9.33;;;;;;;17.85;100.00;96339.41;5031003;28;105184;-63
2022/08/31 02:43:55;;;;;;;9.50;8.57;;;;;;;17.95;100.00;96344.63;5030337;28;105705;-63
2022/08/31 02:46:22;;;;;;;11.57;10.43;;;;;;;17.90;100.00;96344.72;5030712;28;102085;-63
2022/08/31 02:49:13;;;;;;;8.70;7.90;;;;;;;17.74;100.00;96349.59;5029740;28;104670;-63
2022/08/31 02:51:41;;;;;;;8.50;7.70;;;;;;;17.70;100.00;96350.44;5030172;28;105457;-63
2022/08/31 02:54:08;;;;;;;8.90;8.00;;;;;;;17.69;100.00;96346.16;5030778;28;101999;-63
2022/08/31 02:56:35;;;;;;;9.13;8.07;;;;;;;17.75;100.00;96343.09;5033480;28;105236;-63
2022/08/31 02:59:03;;;;;;;9.47;8.67;;;;;;;17.71;100.00;96331.34;5030230;28;102005;-63
2022/08/31 03:01:30;;;;;;;10.77;9.10;;;;;;;17.67;100.00;96332.22;5030653;28;105455;-63
2022/08/31 03:03:57;;;;;;;9.43;8.47;;;;;;;17.64;100.00;96330.13;5029885;28;105229;-63
2022/08/31 03:06:26;;;;;;;10.33;9.33;;;;;;;17.75;100.00;96336.91;5030062;28;101972;-63
2022/08/31 03:08:53;;;;;;;9.83;8.90;;;;;;;17.78;100.00;96336.34;5030508;28;105348;-63
2022/08/31 03:11:20;;;;;;;9.23;8.43;;;;;;;17.75;100.00;96335.03;5029920;28;105826;-63
2022/08/31 03:13:47;;;;;;;9.40;8.50;;;;;;;17.73;100.00;96334.53;5030171;28;102115;-63
2022/08/31 03:16:15;;;;;;;9.90;9.00;;;;;;;17.70;100.00;96339.69;5030391;28;103911;-63
2022/08/31 03:18:42;;;;;;;9.90;8.90;;;;;;;17.66;100.00;96342.19;5032897;27;101977;-63
2022/08/31 03:21:10;;;;;;;10.03;9.10;;;;;;;17.68;100.00;96344.56;5030164;28;105564;-63
2022/08/31 03:23:40;;;;;;;10.23;9.33;;;;;;;17.48;100.00;96344.91;5029589;28;105114;-63
2022/08/31 03:26:08;;;;;;;9.87;8.97;;;;;;;17.52;100.00;96340.56;5030002;28;101945;-63
2022/08/31 03:28:37;;;;;;;10.03;8.87;;;;;;;17.56;100.00;96344.25;5029241;27;105139;-63
2022/08/31 03:31:23;;;;;;;10.03;8.83;;;;;;;17.67;100.00;96342.97;5028287;28;102305;-63
2022/08/31 03:33:50;;;;;;;9.40;8.60;;;;;;;17.69;100.00;96340.78;5030239;28;102289;-63
2022/08/31 03:36:18;;;;;;;11.93;10.10;;;;;;;17.75;100.00;96348.47;5031240;27;102230;-63
2022/08/31 03:38:46;;;;;;;9.53;8.67;;;;;;;17.71;100.00;96352.84;5031996;28;104939;-63
2022/08/31 03:41:16;;;;;;;10.27;9.27;;;;;;;17.72;100.00;96350.97;5029926;28;105692;-63
2022/08/31 03:43:43;;;;;;;8.60;7.90;;;;;;;17.55;100.00;96345.34;5029091;28;105314;-63
2022/08/31 03:46:10;;;;;;;10.17;9.17;;;;;;;17.54;100.00;96352.59;5029707;28;101858;-63
2022/08/31 03:48:37;;;;;;;9.60;8.57;;;;;;;17.58;100.00;96353.63;5029881;28;105449;-63
2022/08/31 03:51:04;;;;;;;9.90;9.00;;;;;;;17.71;100.00;96362.81;5029114;28;105338;-63
2022/08/31 03:53:35;;;;;;;10.57;9.50;;;;;;;17.37;100.00;96356.91;5029941;28;101815;-63
2022/08/31 03:56:08;;;;;;;12.03;9.00;;;;;;;17.24;100.00;96353.09;5029616;28;105129;-63
2022/08/31 03:58:38;;;;;;;10.17;9.17;;;;;;;17.17;100.00;96355.31;5029244;28;104929;-63
2022/08/31 04:01:07;;;;;;;10.70;8.87;;;;;;;17.23;100.00;96353.38;5032874;28;101990;-63
2022/08/31 04:03:54;;;;;;;10.30;9.00;;;;;;;16.94;100.00;96366.97;5029869;28;103384;-63
2022/08/31 04:06:44;;;;;;;10.43;9.43;;;;;;;16.99;100.00;96374.13;5030530;28;102294;-63
2022/08/31 04:09:31;;;;;;;11.50;10.30;;;;;;;16.90;100.00;96368.63;5028258;28;102012;-63
2022/08/31 04:12:19;;;;;;;10.40;9.40;;;;;;;16.96;100.00;96374.75;5026391;28;102258;-63
2022/08/31 04:15:13;;;;;;;10.60;9.63;;;;;;;16.88;100.00;96380.75;5029406;28;101947;-63
2022/08/31 04:17:44;;;;;;;10.67;9.57;;;;;;;16.80;100.00;96381.41;5027771;27;102309;-63
2022/08/31 04:20:34;;;;;;;10.40;9.40;;;;;;;17.12;100.00;96384.19;5029826;28;103703;-63
2022/08/31 04:23:01;;;;;;;11.27;10.17;;;;;;;17.00;100.00;96379.22;5029213;28;101969;-63
2022/08/31 04:25:39;;;;;;;11.90;10.70;;;;;;;16.97;100.00;96387.06;5031285;28;104988;-63
2022/08/31 04:28:08;;;;;;;11.10;10.10;;;;;;;16.82;100.00;96385.41;5028141;28;101917;-63
2022/08/31 04:30:38;;;;;;;11.60;10.40;;;;;;;16.88;100.00;96386.13;5028296;28;105246;-63
2022/08/31 04:33:05;;;;;;;12.10;10.90;;;;;;;16.89;100.00;96393.13;5027529;28;105482;-63
2022/08/31 04:35:32;;;;;;;9.90;9.10;;;;;;;17.02;100.00;96385.13;5028320;28;102099;-63
2022/08/31 04:38:00;;;;;;;12.03;10.83;;;;;;;17.02;100.00;96385.13;5029083;28;105222;-63
2022/08/31 04:40:27;;;;;;;11.13;9.97;;;;;;;17.03;100.00;96380.53;5027272;28;105373;-63
2022/08/31 04:42:55;;;;;;;11.63;10.63;;;;;;;17.09;100.00;96385.56;5028096;28;102118;-63
2022/08/31 04:45:26;;;;;;;10.40;9.37;;;;;;;17.17;100.00;96395.63;5027814;28;104430;-63
2022/08/31 04:47:54;;;;;;;10.67;9.63;;;;;;;17.16;100.00;96390.56;5031896;28;105391;-63
2022/08/31 04:50:21;;;;;;;10.97;9.67;;;;;;;17.15;100.00;96387.06;5028783;28;105574;-63
2022/08/31 04:53:14;;;;;;;9.13;8.33;;;;;;;17.30;100.00;96386.03;5028212;27;103536;-63
2022/08/31 04:55:43;;;;;;;9.53;8.53;;;;;;;17.33;100.00;96393.53;5028659;28;101976;-63
2022/08/31 04:58:12;;;;;;;10.20;9.30;;;;;;;17.35;100.00;96394.03;5028772;28;104340;-63
2022/08/31 05:00:43;;;;;;;9.67;8.77;;;;;;;17.39;100.00;96398.56;5028110;28;105977;-63
2022/08/31 05:03:13;;;;;;;9.47;8.53;;;;;;;17.50;100.00;96391.94;5027094;27;101706;-63
2022/08/31 05:05:42;;;;;;;10.10;9.20;;;;;;;17.45;100.00;96396.59;5028046;28;104799;-63
2022/08/31 05:08:09;;;;;;;9.70;8.90;;;;;;;17.41;100.00;96404.47;5027935;28;105450;-63
2022/08/31 05:10:36;;;;;;;10.17;9.27;;;;;;;17.48;100.00;96399.50;5032218;28;101863;-63
2022/08/31 05:13:04;;;;;;;9.13;8.33;;;;;;;17.55;100.00;96407.19;5027906;28;105456;-63
2022/08/31 05:15:32;;;;;;;13.83;8.77;;;;;;;17.56;100.00;96395.34;5028798;28;102575;-63
2022/08/31 05:18:01;;;;;;;10.73;9.73;;;;;;;17.60;100.00;96393.69;5028241;28;104972;-63
2022/08/31 05:20:31;;;;;;;9.07;8.00;;;;;;;17.96;100.00;96397.34;5028012;28;103811;-63
2022/08/31 05:22:58;;;;;;;8.77;7.97;;;;;;;18.09;100.00;96404.66;5028478;28;101989;-63
2022/08/31 05:25:26;;;;;;;11.13;10.13;;;;;;;18.11;100.00;96402.44;5028415;28;105318;-63
2022/08/31 05:27:54;;;;;;;11.33;10.13;;;;;;;17.91;100.00;96406.31;5026565;28;105156;-63
2022/08/31 05:30:21;;;;;;;9.20;8.30;;;;;;;17.88;100.00;96416.88;5030796;28;102008;-62
2022/08/31 05:33:03;;;;;;;11.23;10.13;;;;;;;17.38;100.00;96410.41;5027619;28;105629;-63
2022/08/31 05:35:30;;;;;;;12.77;8.20;;;;;;;17.70;100.00;96406.94;5027276;28;102019;-63
2022/08/31 05:37:57;;;;;;;9.93;8.90;;;;;;;17.72;100.00;96399.38;5028335;28;105069;-63
2022/08/31 05:40:25;;;;;;;10.67;9.67;;;;;;;17.75;100.00;96410.34;5027557;28;105817;-63
2022/08/31 05:42:52;;;;;;;10.37;9.33;;;;;;;17.88;100.00;96408.78;5028146;28;101964;-63
2022/08/31 05:45:19;;;;;;;10.47;9.33;;;;;;;17.99;100.00;96411.00;5028289;28;105722;-63
2022/08/31 05:47:47;;;;;;;9.97;8.90;;;;;;;18.18;100.00;96410.94;5027422;28;105545;-63
2022/08/31 05:50:17;;;;;;;11.10;10.00;;;;;;;18.11;100.00;96413.22;5027859;28;101903;-63
2022/08/31 05:52:45;;;;;;;10.90;8.63;;;;;;;18.27;100.00;96417.22;5032436;27;104795;-63
2022/08/31 05:55:12;;;;;;;11.07;9.97;;;;;;;18.40;100.00;96416.47;5031498;28;101975;-63
2022/08/31 05:57:40;;;;;;;11.23;9.00;;;;;;;18.45;100.00;96416.38;5030489;28;105713;-63
2022/08/31 06:00:09;;;;;;;11.23;9.47;;;;;;;18.44;100.00;96420.16;5030670;28;105340;-63
2022/08/31 06:02:41;;;;;;;10.90;9.87;;;;;;;18.20;100.00;96422.22;5029755;27;101795;-63
2022/08/31 06:05:10;;;;;;;11.00;9.90;;;;;;;18.17;100.00;96425.47;5030690;28;105493;-63
2022/08/31 06:07:39;;;;;;;12.03;9.33;;;;;;;18.16;100.00;96426.59;5030367;28;105153;-63
2022/08/31 06:10:10;;;;;;;10.00;9.00;;;;;;;18.35;100.00;96435.41;5031344;28;101836;-63
2022/08/31 06:12:41;;;;;;;13.30;11.00;;;;;;;18.21;100.00;96434.56;5031536;28;103924;-63
2022/08/31 06:15:09;;;;;;;12.17;10.80;;;;;;;17.89;100.00;96431.91;5033151;28;105448;-63
2022/08/31 06:17:37;;;;;;;12.27;10.97;;;;;;;18.14;100.00;96434.94;5030339;28;105194;-63
2022/08/31 06:20:06;;;;;;;11.30;10.20;;;;;;;18.22;100.00;96441.53;5029508;28;104597;-63
2022/08/31 06:22:35;;;;;;;11.27;10.20;;;;;;;18.20;100.00;96435.66;5031607;27;101739;-63
2022/08/31 06:25:05;;;;;;;11.93;10.70;;;;;;;18.13;100.00;96438.75;5030174;28;104765;-63
2022/08/31 06:27:34;;;;;;;13.37;10.93;;;;;;;17.98;100.00;96435.53;5029636;28;105604;-63
2022/08/31 06:30:03;;;;;;;14.70;10.80;;;;;;;17.87;100.00;96428.72;5030064;28;102113;-63
2022/08/31 06:32:32;;;;;;;12.53;11.23;;;;;;;17.77;100.00;96434.28;5029819;28;105721;-63
2022/08/31 06:35:02;;;;;;;13.60;11.60;;;;;;;17.61;100.00;96440.97;5029453;28;105385;-63
2022/08/31 06:37:56;;;;;;;11.90;10.70;;;;;;;17.71;100.00;96435.44;5033395;28;101848;-63
2022/08/31 06:40:42;;;;;;;15.43;9.53;;;;;;;17.88;100.00;96441.84;5029483;28;105675;-63
2022/08/31 06:43:41;;;;;;;15.10;11.67;;;;;;;17.96;100.00;96446.59;5030771;28;102475;-61
2022/08/31 06:46:22;;;;;;;12.93;11.53;;;;;;;18.18;100.00;96444.03;5021470;28;105254;-61
2022/08/31 06:49:00;;;;;;;13.20;11.60;;;;;;;18.38;100.00;96443.72;5029095;28;105628;-60
2022/08/31 06:51:28;;;;;;;14.10;12.60;;;;;;;18.39;100.00;96441.78;5028340;28;102622;-61
2022/08/31 06:53:55;;;;;;;13.27;12.00;;;;;;;18.08;100.00;96441.53;5028950;28;105692;-61
2022/08/31 06:56:57;;;;;;;13.20;10.83;;;;;;;17.93;100.00;96443.69;4995205;27;103130;-61
2022/08/31 06:59:47;;;;;;;14.37;12.47;;;;;;;17.95;100.00;96442.31;5000939;27;102159;-61
2022/08/31 07:02:41;;;;;;;12.43;11.20;;;;;;;18.10;100.00;96449.31;5031761;27;102332;-61
2022/08/31 07:05:09;;;;;;;13.13;11.90;;;;;;;18.05;100.00;96441.31;5028740;28;102005;-61
2022/08/31 07:07:38;;;;;;;13.00;11.63;;;;;;;18.04;100.00;96445.88;5029054;28;105526;-61
2022/08/31 07:10:09;;;;;;;13.13;11.83;;;;;;;18.03;100.00;96446.22;5028504;28;105712;-61
2022/08/31 07:12:38;;;;;;;12.50;11.30;;;;;;;18.03;100.00;96451.59;5029182;28;102144;-61
2022/08/31 07:15:06;;;;;;;13.70;11.50;;;;;;;18.04;100.00;96450.50;5028959;28;104876;-61
2022/08/31 07:17:33;;;;;;;13.53;11.07;;;;;;;18.03;100.00;96459.66;5028707;28;104306;-61
2022/08/31 07:20:03;;;;;;;13.40;12.10;;;;;;;17.91;100.00;96456.63;5028718;28;101832;-61
2022/08/31 07:22:30;;;;;;;13.83;12.07;;;;;;;17.94;100.00;96456.81;5028744;28;104891;-61
2022/08/31 07:25:30;;;;;;;13.13;11.70;;;;;;;18.06;100.00;96469.81;5013795;27;102099;-61
2022/08/31 07:28:00;;;;;;;13.50;12.20;;;;;;;18.15;100.00;96473.44;5028353;28;105280;-61
2022/08/31 07:30:27;;;;;;;13.87;12.47;;;;;;;18.18;100.00;96468.25;5029830;27;102591;-61
2022/08/31 07:32:55;;;;;;;13.37;11.97;;;;;;;18.08;100.00;96473.00;5028610;28;101869;-61
2022/08/31 07:35:22;;;;;;;12.53;11.33;;;;;;;18.10;100.00;96476.22;5028405;28;103820;-61
2022/08/31 07:43:30;;;;;;;12.67;11.47;;;;;;;18.36;100.00;96474.72;5027934;28;105420;-63
2022/08/31 07:45:57;;;;;;;12.87;11.47;;;;;;;18.43;100.00;96475.91;5021531;28;105100;-63
2022/08/31 07:48:26;;;;;;;11.97;10.77;;;;;;;18.52;100.00;96470.66;5022764;28;105368;-63
2022/08/31 07:51:05;;;;;;;12.27;11.07;;;;;;;18.66;100.00;96477.63;5026158;27;102519;-63
2022/08/31 07:53:46;;;;;;;13.87;12.47;;;;;;;18.50;100.00;96467.44;5028387;28;101940;-63
2022/08/31 07:56:24;;;;;;;12.83;11.50;;;;;;;18.42;100.00;96465.44;5027813;28;105618;-63
2022/08/31 07:59:02;;;;;;;14.60;12.53;;;;;;;18.39;100.00;96464.16;5026938;28;106450;-62
2022/08/31 08:01:31;;;;;;;13.17;11.87;;;;;;;18.29;100.00;96468.88;5027834;28;101802;-62
2022/08/31 08:04:00;;;;;;;13.80;12.50;;;;;;;18.21;100.00;96466.88;5027726;28;104726;-62
2022/08/31 08:06:46;;;;;;;17.27;14.13;;;;;;;17.73;100.00;96470.91;5028747;28;101768;-62
2022/08/31 08:09:31;;;;;;;14.27;12.97;;;;;;;17.83;100.00;96471.53;5031200;28;101907;-62
2022/08/31 08:12:05;;;;;;;14.87;13.37;;;;;;;18.07;100.00;96476.78;5027048;28;105502;-63
2022/08/31 08:14:45;;;;;;;14.13;12.50;;;;;;;18.14;100.00;96485.31;5025378;27;101746;-63
2022/08/31 08:17:36;;;;;;;15.63;14.10;;;;;;;17.80;100.00;96469.44;5008172;27;102423;-63
2022/08/31 08:20:08;;;;;;;14.03;12.73;;;;;;;17.89;100.00;96481.16;5026882;28;105828;-63
2022/08/31 08:22:38;;;;;;;14.37;12.97;;;;;;;18.13;100.00;96481.00;5027405;28;101820;-63
2022/08/31 08:25:23;;;;;;;14.63;13.23;;;;;;;18.12;100.00;96493.69;5025842;28;102023;-63
2022/08/31 08:28:04;;;;;;;15.63;14.20;;;;;;;18.30;100.00;96494.69;5026491;28;105340;-63
2022/08/31 08:30:36;;;;;;;15.50;13.80;;;;;;;18.43;100.00;96494.75;5027224;28;101981;-63
2022/08/31 08:33:03;;;;;;;19.27;13.47;;;;;;;18.61;100.00;96488.50;5030106;28;105196;-63
2022/08/31 08:35:36;;;;;;;16.07;14.40;;;;;;;18.63;100.00;96490.91;5030558;27;102088;-63
2022/08/31 08:38:04;;;;;;;18.47;14.07;;;;;;;18.30;100.00;96492.81;5028044;28;104812;-62
2022/08/31 08:40:40;;;;;;;15.73;14.00;;;;;;;18.05;100.00;96490.53;5027410;28;105274;-62
2022/08/31 08:43:10;;;;;;;16.13;14.50;;;;;;;17.91;100.00;96494.28;5027938;28;101876;-62
2022/08/31 08:45:41;;;;;;;15.83;14.23;;;;;;;17.92;100.00;96496.69;5040284;27;104474;-63
2022/08/31 08:48:12;;;;;;;15.50;14.00;;;;;;;17.91;100.00;96488.91;5047828;27;105325;-62
2022/08/31 08:50:44;;;;;;;17.43;15.60;;;;;;;17.55;100.00;96488.66;5031360;27;102017;-63
2022/08/31 08:53:25;;;;;;;17.50;15.20;;;;;;;17.42;100.00;96499.34;5028108;27;104429;-62
2022/08/31 08:56:31;;;;;;;16.43;14.83;;;;;;;17.42;100.00;96499.34;5027326;28;105314;-62
2022/08/31 08:58:58;;;;;;;16.97;15.27;;;;;;;17.44;100.00;96505.25;5028951;27;104889;-63
2022/08/31 09:01:34;;;;;;;17.47;15.67;;;;;;;17.31;100.00;96517.47;5027212;28;105127;-62
2022/08/31 09:04:15;;;;;;;17.47;15.67;;;;;;;17.34;100.00;96516.88;5028950;27;101922;-62
2022/08/31 09:07:19;;;;;;;18.57;15.70;;;;;;;17.48;100.00;96520.50;5027831;28;105271;-63
2022/08/31 09:09:57;;;;;;;18.13;16.20;;;;;;;17.64;100.00;96521.06;5028532;27;104779;-63
2022/08/31 09:12:37;;;;;;;16.93;15.30;;;;;;;17.91;100.00;96530.06;5044193;27;101907;-63
2022/08/31 09:15:25;;;;;;;16.50;14.90;;;;;;;18.06;100.00;96523.66;5033253;27;104870;-63
2022/08/31 09:18:02;;;;;;;16.40;14.70;;;;;;;18.05;100.00;96520.16;5026933;28;105068;-63
2022/08/31 09:21:02;;;;;;;16.87;15.17;;;;;;;18.10;100.00;96521.97;5031545;27;101929;-63
2022/08/31 09:23:31;;;;;;;17.13;15.33;;;;;;;18.22;100.00;96517.72;5032119;27;105571;-63
2022/08/31 09:26:16;;;;;;;14.77;13.27;;;;;;;18.42;100.00;96512.00;5045444;27;101900;-63
2022/08/31 09:29:21;;;;;;;14.97;13.57;;;;;;;18.44;100.00;96509.03;5036474;27;103642;-63
2022/08/31 09:31:48;;;;;;;14.77;12.97;;;;;;;18.61;100.00;96503.84;5042933;27;102713;-63
2022/08/31 09:34:29;;;;;;;15.17;13.67;;;;;;;18.24;100.00;96503.94;5041433;27;101861;-62
2022/08/31 09:37:23;;;;;;;15.20;13.70;;;;;;;18.59;100.00;96511.44;5035633;27;105166;-63
2022/08/31 09:39:52;;;;;;;17.03;14.77;;;;;;;18.46;100.00;96510.31;5028902;27;103010;-63
2022/08/31 09:42:29;;;;;;;15.20;13.70;;;;;;;18.55;100.00;96499.66;5030794;28;101960;-62
2022/08/31 09:44:59;;;;;;;15.93;14.40;;;;;;;18.48;100.00;96501.97;5035119;27;102740;-62
2022/08/31 09:47:54;;;;;;;15.97;14.33;;;;;;;18.49;100.00;96501.66;5044868;27;101989;-62
2022/08/31 09:50:43;;;;;;;17.17;15.43;;;;;;;18.22;100.00;96500.78;5048492;27;105183;-63
2022/08/31 09:56:12;;;;;;;16.37;14.80;;;;;;;17.84;100.00;96499.25;5034602;27;102219;-62
2022/08/31 09:58:45;;;;;;;16.30;14.67;;;;;;;18.10;100.00;96492.38;5010586;28;105716;-62
2022/08/31 10:01:17;;;;;;;17.20;15.50;;;;;;;18.01;100.00;96499.50;5011614;28;103230;-62
2022/08/31 10:03:46;;;;;;;17.53;15.73;;;;;;;17.95;100.00;96512.25;5029156;28;102205;-63
2022/08/31 10:06:46;;;;;;;17.00;15.30;;;;;;;17.71;100.00;96519.59;5033115;28;105158;-63
2022/08/31 10:09:27;;;;;;;17.53;15.73;;;;;;;17.69;100.00;96529.06;5032330;27;101849;-62
2022/08/31 10:11:58;;;;;;;17.47;15.67;;;;;;;17.72;100.00;96529.28;5030919;28;105191;-63
2022/08/31 10:14:32;;;;;;;18.37;16.47;;;;;;;17.77;100.00;96533.81;5031804;27;102592;-62
2022/08/31 10:17:09;;;;;;;18.40;16.63;;;;;;;18.00;100.00;96540.97;5032146;27;102212;-62
2022/08/31 10:19:52;;;;;;;18.97;17.07;;;;;;;17.88;100.00;96529.88;5030635;28;106693;-63
2022/08/31 10:22:30;;;;;;;19.90;17.80;;;;;;;17.74;100.00;96537.06;5029857;28;106781;-63
2022/08/31 10:25:20;;;;;;;18.70;16.83;;;;;;;17.59;100.00;96546.16;5032017;28;101778;-62
2022/08/31 10:27:52;;;;;;;19.33;17.47;;;;;;;17.57;100.00;96536.78;5030392;27;105180;-63
2022/08/31 10:30:29;;;;;;;19.90;17.90;;;;;;;17.53;100.00;96544.63;5038297;27;103222;-62
2022/08/31 10:33:05;;;;;;;18.03;16.10;;;;;;;17.25;100.00;96547.38;5052026;27;102345;-62
2022/08/31 10:35:50;;;;;;;18.60;16.73;;;;;;;17.15;100.00;96550.19;5039391;27;106114;-62
2022/08/31 10:38:25;;;;;;;19.97;17.87;;;;;;;17.42;100.00;96550.41;5041026;27;102181;-62
2022/08/31 10:41:03;;;;;;;20.13;18.23;;;;;;;17.30;100.00;96550.81;5040327;27;102277;-62
2022/08/31 10:43:35;;;;;;;19.63;17.63;;;;;;;17.29;100.00;96545.72;5050684;27;104752;-63
2022/08/31 10:46:04;;;;;;;21.20;19.00;;;;;;;17.39;100.00;96551.78;5039034;27;101942;-62
2022/08/31 10:48:32;;;;;;;19.00;17.10;;;;;;;17.54;100.00;96558.88;5036697;27;103658;-62
2022/08/31 10:51:12;;;;;;;17.80;16.00;;;;;;;17.55;100.00;96555.09;5030776;27;105318;-62
2022/08/31 10:53:52;;;;;;;18.40;16.40;;;;;;;17.55;100.00;96547.81;5050574;27;101841;-62
2022/08/31 10:56:32;;;;;;;18.40;16.60;;;;;;;17.56;100.00;96548.63;5045470;27;106843;-62
2022/08/31 10:59:08;;;;;;;18.80;16.93;;;;;;;17.50;100.00;96552.47;5045462;27;101863;-63
2022/08/31 11:01:51;;;;;;;18.63;16.73;;;;;;;17.44;100.00;96548.25;5051357;27;102361;-62
2022/08/31 11:04:48;;;;;;;18.97;16.10;;;;;;;17.50;100.00;96555.94;5048951;27;105577;-63
2022/08/31 11:07:32;;;;;;;17.17;15.57;;;;;;;17.42;100.00;96559.28;5041665;27;101801;-62
2022/08/31 11:10:18;;;;;;;17.20;15.50;;;;;;;17.35;100.00;96561.50;5016818;27;102560;-63
2022/08/31 11:12:52;;;;;;;17.97;16.27;;;;;;;17.30;100.00;96569.63;5038969;27;105641;-62
2022/08/31 11:15:51;;;;;;;18.03;16.33;;;;;;;17.23;100.00;96566.47;5041271;27;101840;-62
2022/08/31 11:18:40;;;;;;;19.63;17.73;;;;;;;17.22;100.00;96569.47;5032593;27;105433;-63
2022/08/31 11:21:41;;;;;;;20.00;18.00;;;;;;;17.31;100.00;96565.84;5040195;27;101808;-62
2022/08/31 11:24:46;;;;;;;18.87;17.07;;;;;;;17.57;100.00;96561.78;5037387;27;105350;-62
2022/08/31 11:27:22;;;;;;;17.20;15.50;;;;;;;17.95;100.00;96562.56;5019411;28;105584;-63
2022/08/31 11:29:55;;;;;;;19.10;17.10;;;;;;;17.98;100.00;96570.06;5029647;28;101926;-62
2022/08/31 11:32:33;;;;;;;17.80;16.10;;;;;;;17.88;100.00;96570.22;5029534;28;105403;-62
2022/08/31 11:35:07;;;;;;;16.60;15.00;;;;;;;17.95;100.00;96573.34;5028903;28;105987;-63
2022/08/31 11:37:56;;;;;;;17.23;15.53;;;;;;;17.86;100.00;96577.75;5030843;27;101695;-62
2022/08/31 11:41:12;;;;;;;13.37;12.13;;;;;;;17.76;100.00;96575.25;5031044;27;102446;-63
2022/08/31 11:43:52;;;;;;;13.83;12.50;;;;;;;17.96;100.00;96583.00;5033576;28;104157;-62
2022/08/31 11:46:58;;;;;;;12.10;10.90;;;;;;;17.86;100.00;96577.75;5029175;28;102623;-62
2022/08/31 11:49:46;;;;;;;10.63;9.63;;;;;;;17.91;100.00;96564.25;5027876;27;104259;-63